sensor_id;sensor_type;location;lat;lon;timestamp;pressure;altitude;pressure_sealevel;temperature
20103;BMP180;10210;52.284;9.892;2022-12-31T00:01:24;99409.00;;;14.70
20103;BMP180;10210;52.284;9.892;2022-12-31T00:03:51;99418.00;;;14.70
20103;BMP180;10210;52.284;9.892;2022-12-31T00:06:27;99428.00;;;14.70
20103;BMP180;10210;52.284;9.892;2022-12-31T00:08:55;99424.00;;;14.70
20103;BMP180;10210;52.284;9.892;2022-12-31T00:11:22;99441.00;;;14.70
20103;BMP180;10210;52.284;9.892;2022-12-31T00:13:50;99435.00;;;14.80
20103;BMP180;10210;52.284;9.892;2022-12-31T00:16:22;99430.00;;;14.80
20103;BMP180;10210;52.284;9.892;2022-12-31T00:18:51;99432.00;;;14.80
20103;BMP180;10210;52.284;9.892;2022-12-31T00:21:19;99441.00;;;14.80
20103;BMP180;10210;52.284;9.892;2022-12-31T00:23:46;99428.00;;;14.80
20103;BMP180;10210;52.284;9.892;2022-12-31T00:26:16;99427.00;;;14.90
20103;BMP180;10210;52.284;9.892;2022-12-31T00:28:43;99433.00;;;14.90
20103;BMP180;10210;52.284;9.892;2022-12-31T00:31:16;99436.00;;;14.90
20103;BMP180;10210;52.284;9.892;2022-12-31T00:33:43;99433.00;;;14.90
20103;BMP180;10210;52.284;9.892;2022-12-31T00:36:13;99437.00;;;14.90
20103;BMP180;10210;52.284;9.892;2022-12-31T00:38:42;99437.00;;;15.00
20103;BMP180;10210;52.284;9.892;2022-12-31T00:41:08;99428.00;;;15.00
20103;BMP180;10210;52.284;9.892;2022-12-31T00:43:35;99421.00;;;15.00
20103;BMP180;10210;52.284;9.892;2022-12-31T00:46:02;99437.00;;;15.00
20103;BMP180;10210;52.284;9.892;2022-12-31T00:48:28;99439.00;;;15.00
20103;BMP180;10210;52.284;9.892;2022-12-31T00:50:55;99449.00;;;15.10
20103;BMP180;10210;52.284;9.892;2022-12-31T00:53:21;99449.00;;;15.10
20103;BMP180;10210;52.284;9.892;2022-12-31T00:55:47;99445.00;;;15.10
20103;BMP180;10210;52.284;9.892;2022-12-31T00:58:13;99448.00;;;15.10
20103;BMP180;10210;52.284;9.892;2022-12-31T01:00:39;99440.00;;;15.10
20103;BMP180;10210;52.284;9.892;2022-12-31T01:03:05;99430.00;;;15.20
20103;BMP180;10210;52.284;9.892;2022-12-31T01:05:34;99433.00;;;15.20
20103;BMP180;10210;52.284;9.892;2022-12-31T01:08:01;99438.00;;;15.20
20103;BMP180;10210;52.284;9.892;2022-12-31T01:10:27;99443.00;;;15.20
20103;BMP180;10210;52.284;9.892;2022-12-31T01:13:12;99457.00;;;15.20
20103;BMP180;10210;52.284;9.892;2022-12-31T01:15:38;99440.00;;;15.20
20103;BMP180;10210;52.284;9.892;2022-12-31T01:18:07;99453.00;;;15.30
20103;BMP180;10210;52.284;9.892;2022-12-31T01:20:42;99455.00;;;15.20
20103;BMP180;10210;52.284;9.892;2022-12-31T01:23:10;99473.00;;;15.30
20103;BMP180;10210;52.284;9.892;2022-12-31T01:25:38;99475.00;;;15.30
20103;BMP180;10210;52.284;9.892;2022-12-31T01:28:05;99476.00;;;15.30
20103;BMP180;10210;52.284;9.892;2022-12-31T01:30:31;99463.00;;;15.30
20103;BMP180;10210;52.284;9.892;2022-12-31T01:32:57;99473.00;;;15.30
20103;BMP180;10210;52.284;9.892;2022-12-31T01:35:23;99466.00;;;15.30
20103;BMP180;10210;52.284;9.892;2022-12-31T01:37:49;99469.00;;;15.30
20103;BMP180;10210;52.284;9.892;2022-12-31T01:40:15;99465.00;;;15.30
20103;BMP180;10210;52.284;9.892;2022-12-31T01:42:41;99462.00;;;15.30
20103;BMP180;10210;52.284;9.892;2022-12-31T01:45:12;99466.00;;;15.30
20103;BMP180;10210;52.284;9.892;2022-12-31T01:47:48;99452.00;;;15.20
20103;BMP180;10210;52.284;9.892;2022-12-31T01:52:51;99461.00;;;15.20
20103;BMP180;10210;52.284;9.892;2022-12-31T01:55:33;99465.00;;;15.20
20103;BMP180;10210;52.284;9.892;2022-12-31T01:58:17;99462.00;;;15.20
20103;BMP180;10210;52.284;9.892;2022-12-31T02:00:44;99468.00;;;15.20
20103;BMP180;10210;52.284;9.892;2022-12-31T02:03:12;99464.00;;;15.20
20103;BMP180;10210;52.284;9.892;2022-12-31T02:08:11;99467.00;;;15.30
20103;BMP180;10210;52.284;9.892;2022-12-31T02:10:37;99460.00;;;15.30
20103;BMP180;10210;52.284;9.892;2022-12-31T02:13:03;99448.00;;;15.30
20103;BMP180;10210;52.284;9.892;2022-12-31T02:18:31;99442.00;;;15.30
20103;BMP180;10210;52.284;9.892;2022-12-31T02:24:31;99434.00;;;15.30
20103;BMP180;10210;52.284;9.892;2022-12-31T02:27:28;99433.00;;;15.30
20103;BMP180;10210;52.284;9.892;2022-12-31T02:30:08;99422.00;;;15.40
20103;BMP180;10210;52.284;9.892;2022-12-31T02:32:56;99414.00;;;15.40
20103;BMP180;10210;52.284;9.892;2022-12-31T02:35:47;99411.00;;;15.40
20103;BMP180;10210;52.284;9.892;2022-12-31T02:38:23;99409.00;;;15.40
20103;BMP180;10210;52.284;9.892;2022-12-31T02:40:55;99420.00;;;15.40
20103;BMP180;10210;52.284;9.892;2022-12-31T02:43:21;99405.00;;;15.50
20103;BMP180;10210;52.284;9.892;2022-12-31T02:49:10;99415.00;;;15.40
20103;BMP180;10210;52.284;9.892;2022-12-31T02:51:52;99409.00;;;15.40
20103;BMP180;10210;52.284;9.892;2022-12-31T03:00:10;99402.00;;;15.50
20103;BMP180;10210;52.284;9.892;2022-12-31T03:02:56;99403.00;;;15.50
20103;BMP180;10210;52.284;9.892;2022-12-31T03:05:26;99399.00;;;15.50
20103;BMP180;10210;52.284;9.892;2022-12-31T03:07:53;99406.00;;;15.50
20103;BMP180;10210;52.284;9.892;2022-12-31T03:10:19;99394.00;;;15.50
20103;BMP180;10210;52.284;9.892;2022-12-31T03:12:45;99401.00;;;15.40
20103;BMP180;10210;52.284;9.892;2022-12-31T03:15:18;99389.00;;;15.40
20103;BMP180;10210;52.284;9.892;2022-12-31T03:20:40;99387.00;;;15.30
20103;BMP180;10210;52.284;9.892;2022-12-31T03:23:34;99374.00;;;15.20
20103;BMP180;10210;52.284;9.892;2022-12-31T03:26:02;99390.00;;;15.20
20103;BMP180;10210;52.284;9.892;2022-12-31T03:28:34;99384.00;;;15.20
20103;BMP180;10210;52.284;9.892;2022-12-31T03:31:02;99377.00;;;15.20
20103;BMP180;10210;52.284;9.892;2022-12-31T03:33:38;99383.00;;;15.20
20103;BMP180;10210;52.284;9.892;2022-12-31T03:36:08;99381.00;;;15.20
20103;BMP180;10210;52.284;9.892;2022-12-31T03:38:34;99367.00;;;15.20
20103;BMP180;10210;52.284;9.892;2022-12-31T03:40:59;99375.00;;;15.20
20103;BMP180;10210;52.284;9.892;2022-12-31T03:43:25;99371.00;;;15.20
20103;BMP180;10210;52.284;9.892;2022-12-31T03:45:53;99355.00;;;15.20
20103;BMP180;10210;52.284;9.892;2022-12-31T03:48:22;99365.00;;;15.20
20103;BMP180;10210;52.284;9.892;2022-12-31T03:50:49;99356.00;;;15.20
20103;BMP180;10210;52.284;9.892;2022-12-31T03:53:15;99346.00;;;15.20
20103;BMP180;10210;52.284;9.892;2022-12-31T03:55:41;99347.00;;;15.20
20103;BMP180;10210;52.284;9.892;2022-12-31T03:58:07;99341.00;;;15.20
20103;BMP180;10210;52.284;9.892;2022-12-31T04:00:33;99344.00;;;15.20
20103;BMP180;10210;52.284;9.892;2022-12-31T04:02:58;99337.00;;;15.20
20103;BMP180;10210;52.284;9.892;2022-12-31T04:05:25;99340.00;;;15.20
20103;BMP180;10210;52.284;9.892;2022-12-31T04:07:50;99336.00;;;15.20
20103;BMP180;10210;52.284;9.892;2022-12-31T04:10:20;99325.00;;;15.20
20103;BMP180;10210;52.284;9.892;2022-12-31T04:12:46;99326.00;;;15.20
20103;BMP180;10210;52.284;9.892;2022-12-31T04:15:18;99327.00;;;15.20
20103;BMP180;10210;52.284;9.892;2022-12-31T04:17:45;99304.00;;;15.20
20103;BMP180;10210;52.284;9.892;2022-12-31T04:20:11;99314.00;;;15.20
20103;BMP180;10210;52.284;9.892;2022-12-31T04:22:37;99291.00;;;15.20
20103;BMP180;10210;52.284;9.892;2022-12-31T04:25:05;99289.00;;;15.20
20103;BMP180;10210;52.284;9.892;2022-12-31T04:27:37;99286.00;;;15.20
20103;BMP180;10210;52.284;9.892;2022-12-31T04:30:04;99297.00;;;15.30
20103;BMP180;10210;52.284;9.892;2022-12-31T04:32:29;99286.00;;;15.30
20103;BMP180;10210;52.284;9.892;2022-12-31T04:34:55;99292.00;;;15.30
20103;BMP180;10210;52.284;9.892;2022-12-31T04:37:20;99292.00;;;15.40
20103;BMP180;10210;52.284;9.892;2022-12-31T04:39:46;99289.00;;;15.40
20103;BMP180;10210;52.284;9.892;2022-12-31T04:42:12;99285.00;;;15.50
20103;BMP180;10210;52.284;9.892;2022-12-31T04:44:37;99287.00;;;15.60
20103;BMP180;10210;52.284;9.892;2022-12-31T04:47:03;99288.00;;;15.60
20103;BMP180;10210;52.284;9.892;2022-12-31T04:49:28;99297.00;;;15.70
20103;BMP180;10210;52.284;9.892;2022-12-31T04:51:54;99285.00;;;15.80
20103;BMP180;10210;52.284;9.892;2022-12-31T04:54:20;99278.00;;;15.80
20103;BMP180;10210;52.284;9.892;2022-12-31T04:56:45;99281.00;;;15.90
20103;BMP180;10210;52.284;9.892;2022-12-31T04:59:11;99282.00;;;16.00
20103;BMP180;10210;52.284;9.892;2022-12-31T05:01:37;99289.00;;;16.00
20103;BMP180;10210;52.284;9.892;2022-12-31T05:04:03;99274.00;;;16.10
20103;BMP180;10210;52.284;9.892;2022-12-31T05:06:29;99278.00;;;16.10
20103;BMP180;10210;52.284;9.892;2022-12-31T05:08:55;99280.00;;;16.20
20103;BMP180;10210;52.284;9.892;2022-12-31T05:11:20;99319.00;;;16.20
20103;BMP180;10210;52.284;9.892;2022-12-31T05:13:46;99360.00;;;16.30
20103;BMP180;10210;52.284;9.892;2022-12-31T05:16:12;99385.00;;;16.20
20103;BMP180;10210;52.284;9.892;2022-12-31T05:18:38;99380.00;;;16.20
20103;BMP180;10210;52.284;9.892;2022-12-31T05:21:05;99388.00;;;16.10
20103;BMP180;10210;52.284;9.892;2022-12-31T05:23:31;99397.00;;;16.00
20103;BMP180;10210;52.284;9.892;2022-12-31T05:25:56;99394.00;;;16.00
20103;BMP180;10210;52.284;9.892;2022-12-31T05:28:23;99378.00;;;15.90
20103;BMP180;10210;52.284;9.892;2022-12-31T05:30:51;99383.00;;;15.90
20103;BMP180;10210;52.284;9.892;2022-12-31T05:33:17;99375.00;;;15.90
20103;BMP180;10210;52.284;9.892;2022-12-31T05:35:44;99375.00;;;15.80
20103;BMP180;10210;52.284;9.892;2022-12-31T05:38:10;99376.00;;;15.80
20103;BMP180;10210;52.284;9.892;2022-12-31T05:40:35;99382.00;;;15.80
20103;BMP180;10210;52.284;9.892;2022-12-31T05:43:01;99394.00;;;15.80
20103;BMP180;10210;52.284;9.892;2022-12-31T05:45:27;99398.00;;;15.80
20103;BMP180;10210;52.284;9.892;2022-12-31T05:47:53;99396.00;;;15.80
20103;BMP180;10210;52.284;9.892;2022-12-31T05:50:19;99407.00;;;15.80
20103;BMP180;10210;52.284;9.892;2022-12-31T05:52:45;99421.00;;;15.80
20103;BMP180;10210;52.284;9.892;2022-12-31T05:55:12;99424.00;;;15.80
20103;BMP180;10210;52.284;9.892;2022-12-31T05:57:39;99430.00;;;15.80
20103;BMP180;10210;52.284;9.892;2022-12-31T06:00:07;99427.00;;;15.80
20103;BMP180;10210;52.284;9.892;2022-12-31T06:02:33;99437.00;;;15.80
20103;BMP180;10210;52.284;9.892;2022-12-31T06:04:59;99433.00;;;15.80
20103;BMP180;10210;52.284;9.892;2022-12-31T06:07:25;99426.00;;;15.80
20103;BMP180;10210;52.284;9.892;2022-12-31T06:09:50;99417.00;;;15.80
20103;BMP180;10210;52.284;9.892;2022-12-31T06:12:16;99429.00;;;15.90
20103;BMP180;10210;52.284;9.892;2022-12-31T06:14:43;99430.00;;;15.90
20103;BMP180;10210;52.284;9.892;2022-12-31T06:17:08;99425.00;;;15.90
20103;BMP180;10210;52.284;9.892;2022-12-31T06:19:34;99419.00;;;15.90
20103;BMP180;10210;52.284;9.892;2022-12-31T06:21:59;99410.00;;;16.00
20103;BMP180;10210;52.284;9.892;2022-12-31T06:24:25;99406.00;;;16.00
20103;BMP180;10210;52.284;9.892;2022-12-31T06:26:50;99400.00;;;16.00
20103;BMP180;10210;52.284;9.892;2022-12-31T06:29:16;99405.00;;;16.00
20103;BMP180;10210;52.284;9.892;2022-12-31T06:31:42;99404.00;;;16.00
20103;BMP180;10210;52.284;9.892;2022-12-31T06:34:08;99407.00;;;16.00
20103;BMP180;10210;52.284;9.892;2022-12-31T06:36:34;99404.00;;;16.00
20103;BMP180;10210;52.284;9.892;2022-12-31T06:39:00;99402.00;;;16.00
20103;BMP180;10210;52.284;9.892;2022-12-31T06:41:26;99405.00;;;16.00
20103;BMP180;10210;52.284;9.892;2022-12-31T06:43:51;99408.00;;;16.00
20103;BMP180;10210;52.284;9.892;2022-12-31T06:46:17;99395.00;;;16.00
20103;BMP180;10210;52.284;9.892;2022-12-31T06:48:44;99412.00;;;16.00
20103;BMP180;10210;52.284;9.892;2022-12-31T06:51:16;99414.00;;;15.90
20103;BMP180;10210;52.284;9.892;2022-12-31T06:53:43;99406.00;;;15.90
20103;BMP180;10210;52.284;9.892;2022-12-31T06:56:25;99405.00;;;15.90
20103;BMP180;10210;52.284;9.892;2022-12-31T06:58:54;99408.00;;;15.90
20103;BMP180;10210;52.284;9.892;2022-12-31T07:04:46;99405.00;;;15.90
20103;BMP180;10210;52.284;9.892;2022-12-31T07:07:47;99405.00;;;15.90
20103;BMP180;10210;52.284;9.892;2022-12-31T07:13:45;99405.00;;;15.90
20103;BMP180;10210;52.284;9.892;2022-12-31T07:19:31;99399.00;;;16.00
20103;BMP180;10210;52.284;9.892;2022-12-31T07:22:01;99397.00;;;16.00
20103;BMP180;10210;52.284;9.892;2022-12-31T07:24:27;99381.00;;;16.10
20103;BMP180;10210;52.284;9.892;2022-12-31T07:30:12;99392.00;;;16.10
20103;BMP180;10210;52.284;9.892;2022-12-31T07:36:15;99386.00;;;16.10
20103;BMP180;10210;52.284;9.892;2022-12-31T07:44:35;99410.00;;;16.40
20103;BMP180;10210;52.284;9.892;2022-12-31T07:47:06;99419.00;;;16.50
20103;BMP180;10210;52.284;9.892;2022-12-31T07:49:40;99428.00;;;16.50
20103;BMP180;10210;52.284;9.892;2022-12-31T07:52:07;99429.00;;;16.50
20103;BMP180;10210;52.284;9.892;2022-12-31T07:54:33;99446.00;;;16.60
20103;BMP180;10210;52.284;9.892;2022-12-31T07:56:59;99464.00;;;16.60
20103;BMP180;10210;52.284;9.892;2022-12-31T08:00:04;99452.00;;;16.50
20103;BMP180;10210;52.284;9.892;2022-12-31T08:05:32;99480.00;;;16.50
20103;BMP180;10210;52.284;9.892;2022-12-31T08:08:35;99476.00;;;16.40
20103;BMP180;10210;52.284;9.892;2022-12-31T08:13:42;99481.00;;;16.50
20103;BMP180;10210;52.284;9.892;2022-12-31T08:16:13;99483.00;;;16.50
20103;BMP180;10210;52.284;9.892;2022-12-31T08:18:39;99489.00;;;16.50
20103;BMP180;10210;52.284;9.892;2022-12-31T08:21:36;99489.00;;;16.40
20103;BMP180;10210;52.284;9.892;2022-12-31T08:27:32;99513.00;;;16.40
20103;BMP180;10210;52.284;9.892;2022-12-31T08:30:13;99520.00;;;16.40
20103;BMP180;10210;52.284;9.892;2022-12-31T08:32:46;99535.00;;;16.40
20103;BMP180;10210;52.284;9.892;2022-12-31T08:38:51;99529.00;;;16.20
20103;BMP180;10210;52.284;9.892;2022-12-31T08:41:37;99525.00;;;16.30
20103;BMP180;10210;52.284;9.892;2022-12-31T08:49:31;99530.00;;;16.30
20103;BMP180;10210;52.284;9.892;2022-12-31T08:51:58;99530.00;;;16.40
20103;BMP180;10210;52.284;9.892;2022-12-31T08:54:25;99518.00;;;16.40
20103;BMP180;10210;52.284;9.892;2022-12-31T09:02:40;99538.00;;;16.50
20103;BMP180;10210;52.284;9.892;2022-12-31T09:05:21;99543.00;;;16.50
20103;BMP180;10210;52.284;9.892;2022-12-31T09:11:13;99531.00;;;16.50
20103;BMP180;10210;52.284;9.892;2022-12-31T09:14:19;99537.00;;;16.50
20103;BMP180;10210;52.284;9.892;2022-12-31T09:19:50;99520.00;;;16.60
20103;BMP180;10210;52.284;9.892;2022-12-31T09:22:16;99512.00;;;16.60
20103;BMP180;10210;52.284;9.892;2022-12-31T09:24:42;99508.00;;;16.70
20103;BMP180;10210;52.284;9.892;2022-12-31T09:27:23;99517.00;;;16.70
20103;BMP180;10210;52.284;9.892;2022-12-31T09:30:03;99523.00;;;16.70
20103;BMP180;10210;52.284;9.892;2022-12-31T09:33:06;99515.00;;;16.70
20103;BMP180;10210;52.284;9.892;2022-12-31T09:35:54;99522.00;;;16.80
20103;BMP180;10210;52.284;9.892;2022-12-31T09:41:24;99524.00;;;16.90
20103;BMP180;10210;52.284;9.892;2022-12-31T09:47:19;99510.00;;;17.10
20103;BMP180;10210;52.284;9.892;2022-12-31T09:50:20;99511.00;;;17.10
20103;BMP180;10210;52.284;9.892;2022-12-31T09:53:34;99510.00;;;17.20
20103;BMP180;10210;52.284;9.892;2022-12-31T09:56:11;99508.00;;;17.40
20103;BMP180;10210;52.284;9.892;2022-12-31T10:01:56;99518.00;;;17.50
20103;BMP180;10210;52.284;9.892;2022-12-31T10:05:15;99518.00;;;17.60
20103;BMP180;10210;52.284;9.892;2022-12-31T10:08:39;99518.00;;;17.70
20103;BMP180;10210;52.284;9.892;2022-12-31T10:11:18;99509.00;;;17.80
20103;BMP180;10210;52.284;9.892;2022-12-31T10:14:05;99503.00;;;17.90
20103;BMP180;10210;52.284;9.892;2022-12-31T10:20:19;99493.00;;;18.10
20103;BMP180;10210;52.284;9.892;2022-12-31T10:29:22;99500.00;;;18.30
20103;BMP180;10210;52.284;9.892;2022-12-31T10:32:17;99499.00;;;18.40
20103;BMP180;10210;52.284;9.892;2022-12-31T10:35:17;99491.00;;;18.50
20103;BMP180;10210;52.284;9.892;2022-12-31T10:38:12;99494.00;;;18.60
20103;BMP180;10210;52.284;9.892;2022-12-31T10:47:27;99507.00;;;18.70
20103;BMP180;10210;52.284;9.892;2022-12-31T10:51:07;99528.00;;;18.70
20103;BMP180;10210;52.284;9.892;2022-12-31T10:59:55;99509.00;;;18.90
20103;BMP180;10210;52.284;9.892;2022-12-31T11:06:05;99533.00;;;19.00
20103;BMP180;10210;52.284;9.892;2022-12-31T11:20:57;99557.00;;;19.20
20103;BMP180;10210;52.284;9.892;2022-12-31T11:26:56;99540.00;;;19.30
20103;BMP180;10210;52.284;9.892;2022-12-31T11:29:48;99575.00;;;19.30
20103;BMP180;10210;52.284;9.892;2022-12-31T11:32:55;99578.00;;;19.30
20103;BMP180;10210;52.284;9.892;2022-12-31T11:38:36;99592.00;;;19.30
20103;BMP180;10210;52.284;9.892;2022-12-31T11:41:04;99585.00;;;19.30
20103;BMP180;10210;52.284;9.892;2022-12-31T11:44:04;99592.00;;;19.30
20103;BMP180;10210;52.284;9.892;2022-12-31T11:50:02;99599.00;;;19.30
20103;BMP180;10210;52.284;9.892;2022-12-31T11:52:56;99621.00;;;19.30
20103;BMP180;10210;52.284;9.892;2022-12-31T11:56:18;99618.00;;;19.30
20103;BMP180;10210;52.284;9.892;2022-12-31T11:59:10;99624.00;;;19.30
20103;BMP180;10210;52.284;9.892;2022-12-31T12:02:14;99620.00;;;19.30
20103;BMP180;10210;52.284;9.892;2022-12-31T12:04:48;99624.00;;;19.40
20103;BMP180;10210;52.284;9.892;2022-12-31T12:07:16;99624.00;;;19.50
20103;BMP180;10210;52.284;9.892;2022-12-31T12:09:43;99627.00;;;19.50
20103;BMP180;10210;52.284;9.892;2022-12-31T12:12:10;99620.00;;;19.50
20103;BMP180;10210;52.284;9.892;2022-12-31T12:14:40;99610.00;;;19.50
20103;BMP180;10210;52.284;9.892;2022-12-31T12:17:21;99607.00;;;19.50
20103;BMP180;10210;52.284;9.892;2022-12-31T12:19:54;99616.00;;;19.50
20103;BMP180;10210;52.284;9.892;2022-12-31T12:22:24;99620.00;;;19.50
20103;BMP180;10210;52.284;9.892;2022-12-31T12:25:04;99620.00;;;19.50
20103;BMP180;10210;52.284;9.892;2022-12-31T12:27:34;99615.00;;;19.50
20103;BMP180;10210;52.284;9.892;2022-12-31T12:30:22;99604.00;;;19.50
20103;BMP180;10210;52.284;9.892;2022-12-31T12:32:57;99611.00;;;19.50
20103;BMP180;10210;52.284;9.892;2022-12-31T12:35:34;99613.00;;;19.50
20103;BMP180;10210;52.284;9.892;2022-12-31T12:38:05;99610.00;;;19.60
20103;BMP180;10210;52.284;9.892;2022-12-31T12:40:33;99616.00;;;19.70
20103;BMP180;10210;52.284;9.892;2022-12-31T12:42:59;99616.00;;;19.70
20103;BMP180;10210;52.284;9.892;2022-12-31T12:45:35;99621.00;;;19.70
20103;BMP180;10210;52.284;9.892;2022-12-31T12:48:16;99625.00;;;19.80
20103;BMP180;10210;52.284;9.892;2022-12-31T12:50:46;99621.00;;;19.80
20103;BMP180;10210;52.284;9.892;2022-12-31T12:53:22;99623.00;;;19.90
20103;BMP180;10210;52.284;9.892;2022-12-31T13:01:56;99630.00;;;19.90
20103;BMP180;10210;52.284;9.892;2022-12-31T13:04:56;99643.00;;;19.90
20103;BMP180;10210;52.284;9.892;2022-12-31T13:07:58;99647.00;;;19.90
20103;BMP180;10210;52.284;9.892;2022-12-31T13:19:41;99649.00;;;20.00
20103;BMP180;10210;52.284;9.892;2022-12-31T13:22:34;99667.00;;;20.00
20103;BMP180;10210;52.284;9.892;2022-12-31T13:27:48;99650.00;;;20.10
20103;BMP180;10210;52.284;9.892;2022-12-31T13:30:30;99648.00;;;20.10
20103;BMP180;10210;52.284;9.892;2022-12-31T13:33:17;99650.00;;;20.10
20103;BMP180;10210;52.284;9.892;2022-12-31T13:35:56;99660.00;;;20.10
20103;BMP180;10210;52.284;9.892;2022-12-31T13:38:44;99675.00;;;20.10
20103;BMP180;10210;52.284;9.892;2022-12-31T13:44:28;99663.00;;;20.00
20103;BMP180;10210;52.284;9.892;2022-12-31T13:47:07;99647.00;;;20.10
20103;BMP180;10210;52.284;9.892;2022-12-31T13:49:51;99657.00;;;20.00
20103;BMP180;10210;52.284;9.892;2022-12-31T13:52:39;99655.00;;;20.00
20103;BMP180;10210;52.284;9.892;2022-12-31T13:55:25;99647.00;;;20.00
20103;BMP180;10210;52.284;9.892;2022-12-31T13:58:20;99650.00;;;20.00
20103;BMP180;10210;52.284;9.892;2022-12-31T14:01:01;99640.00;;;20.00
20103;BMP180;10210;52.284;9.892;2022-12-31T14:04:06;99649.00;;;20.00
20103;BMP180;10210;52.284;9.892;2022-12-31T14:07:13;99641.00;;;19.90
20103;BMP180;10210;52.284;9.892;2022-12-31T14:09:41;99649.00;;;20.00
20103;BMP180;10210;52.284;9.892;2022-12-31T14:13:17;99660.00;;;19.90
20103;BMP180;10210;52.284;9.892;2022-12-31T14:24:44;99657.00;;;20.00
20103;BMP180;10210;52.284;9.892;2022-12-31T14:27:33;99647.00;;;20.00
20103;BMP180;10210;52.284;9.892;2022-12-31T14:30:08;99650.00;;;20.10
20103;BMP180;10210;52.284;9.892;2022-12-31T14:36:11;99663.00;;;20.10
20103;BMP180;10210;52.284;9.892;2022-12-31T14:41:41;99686.00;;;20.10
20103;BMP180;10210;52.284;9.892;2022-12-31T14:44:58;99679.00;;;20.10
20103;BMP180;10210;52.284;9.892;2022-12-31T14:50:26;99677.00;;;20.20
20103;BMP180;10210;52.284;9.892;2022-12-31T14:53:07;99680.00;;;20.20
20103;BMP180;10210;52.284;9.892;2022-12-31T14:55:39;99678.00;;;20.30
20103;BMP180;10210;52.284;9.892;2022-12-31T14:59:02;99689.00;;;20.20
20103;BMP180;10210;52.284;9.892;2022-12-31T15:01:28;99682.00;;;20.30
20103;BMP180;10210;52.284;9.892;2022-12-31T15:03:56;99669.00;;;20.30
20103;BMP180;10210;52.284;9.892;2022-12-31T15:12:17;99714.00;;;20.20
20103;BMP180;10210;52.284;9.892;2022-12-31T15:15:13;99717.00;;;20.20
20103;BMP180;10210;52.284;9.892;2022-12-31T15:18:20;99709.00;;;20.20
20103;BMP180;10210;52.284;9.892;2022-12-31T15:21:19;99715.00;;;20.20
20103;BMP180;10210;52.284;9.892;2022-12-31T15:23:53;99725.00;;;20.20
20103;BMP180;10210;52.284;9.892;2022-12-31T15:26:24;99717.00;;;20.20
20103;BMP180;10210;52.284;9.892;2022-12-31T15:29:07;99717.00;;;20.20
20103;BMP180;10210;52.284;9.892;2022-12-31T15:31:46;99720.00;;;20.20
20103;BMP180;10210;52.284;9.892;2022-12-31T15:34:38;99734.00;;;20.20
20103;BMP180;10210;52.284;9.892;2022-12-31T15:37:27;99742.00;;;20.20
20103;BMP180;10210;52.284;9.892;2022-12-31T15:40:16;99734.00;;;20.20
20103;BMP180;10210;52.284;9.892;2022-12-31T15:45:54;99737.00;;;20.20
20103;BMP180;10210;52.284;9.892;2022-12-31T15:48:30;99719.00;;;20.20
20103;BMP180;10210;52.284;9.892;2022-12-31T15:50:59;99722.00;;;20.20
20103;BMP180;10210;52.284;9.892;2022-12-31T15:53:53;99737.00;;;20.10
20103;BMP180;10210;52.284;9.892;2022-12-31T15:56:42;99728.00;;;20.20
20103;BMP180;10210;52.284;9.892;2022-12-31T15:59:16;99732.00;;;20.20
20103;BMP180;10210;52.284;9.892;2022-12-31T16:01:43;99743.00;;;20.20
20103;BMP180;10210;52.284;9.892;2022-12-31T16:04:28;99720.00;;;20.10
20103;BMP180;10210;52.284;9.892;2022-12-31T16:06:59;99730.00;;;20.10
20103;BMP180;10210;52.284;9.892;2022-12-31T16:09:33;99739.00;;;20.10
20103;BMP180;10210;52.284;9.892;2022-12-31T16:12:08;99730.00;;;20.20
20103;BMP180;10210;52.284;9.892;2022-12-31T16:14:42;99731.00;;;20.20
20103;BMP180;10210;52.284;9.892;2022-12-31T16:17:32;99734.00;;;20.10
20103;BMP180;10210;52.284;9.892;2022-12-31T16:20:01;99728.00;;;20.20
20103;BMP180;10210;52.284;9.892;2022-12-31T16:22:37;99734.00;;;20.20
20103;BMP180;10210;52.284;9.892;2022-12-31T16:25:06;99724.00;;;20.20
20103;BMP180;10210;52.284;9.892;2022-12-31T16:27:34;99737.00;;;20.20
20103;BMP180;10210;52.284;9.892;2022-12-31T16:30:14;99738.00;;;20.20
20103;BMP180;10210;52.284;9.892;2022-12-31T16:32:47;99733.00;;;20.20
20103;BMP180;10210;52.284;9.892;2022-12-31T16:38:13;99753.00;;;20.10
20103;BMP180;10210;52.284;9.892;2022-12-31T16:40:43;99749.00;;;20.20
20103;BMP180;10210;52.284;9.892;2022-12-31T16:45:57;99782.00;;;20.20
20103;BMP180;10210;52.284;9.892;2022-12-31T16:48:31;99770.00;;;20.20
20103;BMP180;10210;52.284;9.892;2022-12-31T16:50:57;99757.00;;;20.20
20103;BMP180;10210;52.284;9.892;2022-12-31T16:53:26;99767.00;;;20.20
20103;BMP180;10210;52.284;9.892;2022-12-31T16:56:07;99765.00;;;20.20
20103;BMP180;10210;52.284;9.892;2022-12-31T16:58:40;99765.00;;;20.20
20103;BMP180;10210;52.284;9.892;2022-12-31T17:01:15;99764.00;;;20.20
20103;BMP180;10210;52.284;9.892;2022-12-31T17:03:47;99763.00;;;20.20
20103;BMP180;10210;52.284;9.892;2022-12-31T17:06:21;99764.00;;;20.20
20103;BMP180;10210;52.284;9.892;2022-12-31T17:11:40;99768.00;;;20.20
20103;BMP180;10210;52.284;9.892;2022-12-31T17:17:04;99766.00;;;20.10
20103;BMP180;10210;52.284;9.892;2022-12-31T17:19:42;99752.00;;;20.20
20103;BMP180;10210;52.284;9.892;2022-12-31T17:22:26;99751.00;;;20.20
20103;BMP180;10210;52.284;9.892;2022-12-31T17:27:57;99779.00;;;20.10
20103;BMP180;10210;52.284;9.892;2022-12-31T17:35:42;99765.00;;;20.20
20103;BMP180;10210;52.284;9.892;2022-12-31T17:43:37;99761.00;;;20.10
20103;BMP180;10210;52.284;9.892;2022-12-31T17:46:11;99767.00;;;20.10
20103;BMP180;10210;52.284;9.892;2022-12-31T17:48:39;99763.00;;;20.10
20103;BMP180;10210;52.284;9.892;2022-12-31T17:51:05;99763.00;;;20.10
20103;BMP180;10210;52.284;9.892;2022-12-31T17:53:31;99769.00;;;20.10
20103;BMP180;10210;52.284;9.892;2022-12-31T17:56:02;99760.00;;;20.10
20103;BMP180;10210;52.284;9.892;2022-12-31T17:58:46;99763.00;;;20.10
20103;BMP180;10210;52.284;9.892;2022-12-31T18:01:17;99762.00;;;20.10
20103;BMP180;10210;52.284;9.892;2022-12-31T18:03:43;99767.00;;;20.10
20103;BMP180;10210;52.284;9.892;2022-12-31T18:06:10;99757.00;;;20.10
20103;BMP180;10210;52.284;9.892;2022-12-31T18:08:36;99744.00;;;20.10
20103;BMP180;10210;52.284;9.892;2022-12-31T18:11:02;99746.00;;;20.10
20103;BMP180;10210;52.284;9.892;2022-12-31T18:13:28;99743.00;;;20.10
20103;BMP180;10210;52.284;9.892;2022-12-31T18:15:54;99740.00;;;20.10
20103;BMP180;10210;52.284;9.892;2022-12-31T18:18:28;99735.00;;;20.10